Castle Dale, Utah
Current Conditions -  °F | °C
As of 2:53 PM on Friday 31 Oct 2014 (Local Time) from KPUC Reporting Station
Clear Clear  
Wind Chill: 63°   Ceiling: Unl
Heat Index: 63°   Visibility: 10mi
Dew Point: 18°   Wind: 6mph
Humidity: 18%   Direction: 150°SSE
Pressure: 30.1"   Gusts: NA
Location:  39.21°N, 111.02°W
Report Text: KPUC 312053Z AUTO 15005KT 10SM CLR 17/M08 A3010 RMK AO2 SLP169 T01721078 56027 TSNO
Loading
Personal Weather Stations






























Interactive Weather Map
Tropical Storm Tracking
New forecast layout! Learn more

10-Day Weather Forecast

Advertisements
Track Severe Weather on mobile